Lisbon, Portugal
Current Conditions -  °F | °C
As of 3:30 AM on Monday 24 Nov 2014 (Local Time) from LPPT Reporting Station
Scattered Clouds Scattered Clouds  
Wind Chill: 14°   Ceiling: Unl
Heat Index: 14°   Visibility: 6mi
Dew Point: 13°   Wind: 8mph
Humidity: 94%   Direction: 350°N
Pressure: 29.91"   Gusts: NA
Location:  38.72°N, 9.14°W
Report Text: LPPT 240330Z 35007KT 9999 FEW036 SCT046 14/13 Q1013
Loading
Personal Weather Stations






























Interactive Weather Map New forecast layout! Learn more

10-Day Weather Forecast

Advertisements
Track Severe Weather on mobile